createdAt,value
2023-02-12T00:01:18.977Z,76.25
2023-02-12T00:03:45.651Z,74.20
2023-02-12T00:06:15.512Z,62.80
2023-02-12T00:08:42.941Z,65.43
2023-02-12T00:11:18.469Z,64.97
2023-02-12T00:13:45.402Z,61.88
2023-02-12T00:16:18.106Z,62.83
2023-02-12T00:18:45.928Z,60.03
2023-02-12T00:21:13.933Z,64.30
2023-02-12T00:23:43.752Z,67.18
2023-02-12T00:26:13.093Z,60.40
2023-02-12T00:28:39.924Z,60.00
2023-02-12T00:31:11.875Z,63.90
2023-02-12T00:33:38.792Z,65.88
2023-02-12T00:36:06.092Z,61.58
2023-02-12T00:38:32.939Z,65.60
2023-02-12T00:40:59.530Z,65.10
2023-02-12T00:43:26.052Z,64.93
2023-02-12T00:45:52.853Z,65.07
2023-02-12T00:48:19.554Z,62.53
2023-02-12T00:50:48.080Z,69.93
2023-02-12T00:53:15.006Z,53.20
2023-02-12T00:55:41.682Z,48.15
2023-02-12T00:58:08.514Z,53.83
2023-02-12T01:00:35.304Z,62.78
2023-02-12T01:03:02.186Z,57.28
2023-02-12T01:05:28.819Z,57.05
2023-02-12T01:07:55.330Z,63.38
2023-02-12T01:10:22.024Z,55.97
2023-02-12T01:15:30.330Z,57.17
2023-02-12T01:17:56.813Z,56.95
2023-02-12T01:20:25.004Z,59.20
2023-02-12T01:22:54.671Z,61.67
2023-02-12T01:25:21.226Z,59.47
2023-02-12T01:27:47.928Z,59.58
2023-02-12T01:30:15.915Z,61.00
2023-02-12T01:32:42.894Z,60.80
2023-02-12T01:35:10.474Z,63.75
2023-02-12T01:37:38.005Z,60.83
2023-02-12T01:40:06.585Z,54.50
2023-02-12T01:42:33.252Z,55.25
2023-02-12T01:45:14.732Z,58.92
2023-02-12T01:47:43.047Z,61.55
2023-02-12T01:50:13.017Z,62.78
2023-02-12T01:52:43.538Z,63.88
2023-02-12T01:55:10.877Z,58.13
2023-02-12T01:57:40.976Z,58.13
2023-02-12T02:00:16.721Z,61.20
2023-02-12T02:02:46.048Z,58.45
2023-02-12T02:05:15.380Z,56.05
2023-02-12T02:07:44.292Z,60.85
2023-02-12T02:10:11.067Z,62.30
2023-02-12T02:12:57.368Z,56.15
2023-02-12T02:15:26.507Z,61.38
2023-02-12T02:18:11.650Z,61.20
2023-02-12T02:21:36.509Z,65.95
2023-02-12T02:24:18.717Z,63.22
2023-02-12T02:27:10.321Z,64.15
2023-02-12T02:30:07.513Z,64.57
2023-02-12T02:32:50.523Z,63.60
2023-02-12T02:35:48.483Z,63.25
2023-02-12T02:38:26.221Z,62.97
2023-02-12T02:41:07.736Z,62.13
2023-02-12T02:43:50.220Z,63.65
2023-02-12T02:46:42.347Z,64.47
2023-02-12T02:49:17.486Z,67.63
2023-02-12T02:51:49.850Z,62.80
2023-02-12T02:54:21.416Z,57.42
2023-02-12T02:56:50.896Z,61.85
2023-02-12T02:59:23.470Z,66.00
2023-02-12T03:02:32.029Z,62.75
2023-02-12T03:05:04.304Z,68.65
2023-02-12T03:07:38.796Z,65.88
2023-02-12T03:10:12.283Z,63.75
2023-02-12T03:12:47.805Z,60.00
2023-02-12T03:15:16.879Z,61.45
2023-02-12T03:17:48.943Z,63.45
2023-02-12T03:20:24.523Z,60.88
2023-02-12T03:23:01.595Z,59.80
2023-02-12T03:25:38.643Z,59.83
2023-02-12T03:28:14.265Z,60.85
2023-02-12T03:31:18.023Z,63.03
2023-02-12T03:34:02.317Z,63.95
2023-02-12T03:36:34.676Z,68.35
2023-02-12T03:39:11.739Z,63.60
2023-02-12T03:41:49.572Z,64.47
2023-02-12T03:44:48.099Z,59.17
2023-02-12T03:47:47.192Z,57.28
2023-02-12T03:50:26.306Z,58.65
2023-02-12T03:52:52.872Z,55.78
2023-02-12T03:55:19.777Z,57.70
2023-02-12T03:58:01.253Z,57.90
2023-02-12T04:00:27.932Z,67.90
2023-02-12T04:02:55.098Z,63.28
2023-02-12T04:05:24.483Z,62.90
2023-02-12T04:07:52.662Z,67.10
2023-02-12T04:10:26.694Z,65.88
2023-02-12T04:13:20.673Z,63.20
2023-02-12T04:16:20.026Z,65.85
2023-02-12T04:18:51.780Z,61.28
2023-02-12T04:21:39.288Z,60.33
2023-02-12T04:24:13.611Z,65.57
2023-02-12T04:26:54.477Z,53.42
2023-02-12T04:30:02.533Z,59.65
2023-02-12T04:32:45.036Z,57.65
2023-02-12T04:35:17.591Z,62.47
2023-02-12T04:37:50.878Z,57.83
2023-02-12T04:40:19.996Z,61.35
2023-02-12T04:42:49.022Z,62.25
2023-02-12T04:45:33.495Z,55.70
2023-02-12T04:48:00.594Z,56.85
2023-02-12T04:50:37.515Z,58.50
2023-02-12T04:53:04.006Z,66.03
2023-02-12T04:55:30.459Z,63.75
2023-02-12T04:57:56.919Z,63.25
2023-02-12T05:00:23.598Z,69.03
2023-02-12T05:02:50.122Z,68.32
2023-02-12T05:05:17.066Z,60.85
2023-02-12T05:07:43.595Z,63.17
2023-02-12T05:10:10.423Z,69.30
2023-02-12T05:12:37.216Z,63.50
2023-02-12T05:15:03.795Z,62.40
2023-02-12T05:17:30.261Z,70.43
2023-02-12T05:19:56.752Z,64.25
2023-02-12T05:22:23.290Z,67.70
2023-02-12T05:24:49.797Z,60.40
2023-02-12T05:27:16.293Z,59.60
2023-02-12T05:29:42.866Z,52.10
2023-02-12T05:32:09.464Z,70.30
2023-02-12T05:34:36.641Z,64.03
2023-02-12T05:37:03.284Z,56.33
2023-02-12T05:39:29.793Z,61.03
2023-02-12T05:41:56.288Z,64.10
2023-02-12T05:44:22.818Z,64.20
2023-02-12T05:46:49.348Z,74.53
2023-02-12T05:49:15.891Z,64.50
2023-02-12T05:51:42.401Z,67.22
2023-02-12T05:54:10.361Z,67.43
2023-02-12T05:56:42.326Z,62.53
2023-02-12T05:59:14.648Z,67.95
2023-02-12T06:01:42.855Z,63.40
2023-02-12T06:04:14.548Z,61.67
2023-02-12T06:06:42.179Z,69.32
2023-02-12T06:09:10.559Z,69.47
2023-02-12T06:11:37.746Z,62.53
2023-02-12T06:14:06.181Z,71.78
2023-02-12T06:16:34.113Z,66.18
2023-02-12T06:19:03.391Z,66.30
2023-02-12T06:21:30.508Z,69.50
2023-02-12T06:23:57.055Z,68.07
2023-02-12T06:26:24.327Z,72.82
2023-02-12T06:28:51.479Z,75.00
2023-02-12T06:31:29.624Z,71.85
2023-02-12T06:33:57.863Z,74.72
2023-02-12T06:36:24.948Z,71.22
2023-02-12T06:38:52.341Z,72.20
2023-02-12T06:41:19.553Z,68.85
2023-02-12T06:43:46.119Z,70.78
2023-02-12T06:46:13.914Z,78.68
2023-02-12T06:48:41.077Z,75.35
2023-02-12T06:51:10.080Z,80.97
2023-02-12T06:53:37.341Z,72.40
2023-02-12T06:56:06.036Z,75.10
2023-02-12T06:58:32.914Z,79.53
2023-02-12T07:01:13.250Z,75.05
2023-02-12T07:03:41.175Z,76.60
2023-02-12T07:06:08.613Z,72.68
2023-02-12T07:08:38.028Z,76.72
2023-02-12T07:11:05.501Z,75.43
2023-02-12T07:13:34.836Z,77.13
2023-02-12T07:16:09.908Z,78.65
2023-02-12T07:18:37.600Z,79.75
2023-02-12T07:21:06.252Z,79.95
2023-02-12T07:23:33.485Z,66.45
2023-02-12T07:26:02.703Z,79.47
2023-02-12T07:28:29.323Z,74.78
2023-02-12T07:30:55.899Z,78.03
2023-02-12T07:33:22.399Z,77.63
2023-02-12T07:35:48.854Z,80.70
2023-02-12T07:38:15.464Z,81.07
2023-02-12T07:40:41.960Z,74.00
2023-02-12T07:43:08.493Z,86.65
2023-02-12T07:45:35.143Z,87.50
2023-02-12T07:48:01.655Z,86.38
2023-02-12T07:50:28.161Z,83.75
2023-02-12T07:52:54.671Z,77.63
2023-02-12T07:55:21.328Z,81.15
2023-02-12T07:57:47.778Z,83.20
2023-02-12T08:00:14.968Z,81.03
2023-02-12T08:02:41.567Z,73.72
2023-02-12T08:05:08.203Z,67.72
2023-02-12T08:07:34.899Z,81.47
2023-02-12T08:10:01.389Z,77.38
2023-02-12T08:12:27.881Z,69.95
2023-02-12T08:14:54.606Z,81.75
2023-02-12T08:17:21.090Z,74.63
2023-02-12T08:19:47.599Z,75.47
2023-02-12T08:22:14.052Z,74.75
2023-02-12T08:24:40.534Z,84.05
2023-02-12T08:27:07.061Z,74.57
2023-02-12T08:29:33.551Z,72.25
2023-02-12T08:32:02.391Z,74.13
2023-02-12T08:34:35.637Z,78.32
2023-02-12T08:37:04.302Z,71.30
2023-02-12T08:39:30.995Z,76.22
2023-02-12T08:41:59.335Z,74.30
2023-02-12T08:44:26.140Z,75.68
2023-02-12T08:46:53.336Z,67.93
2023-02-12T08:49:22.673Z,77.93
2023-02-12T08:51:51.975Z,73.30
2023-02-12T08:54:23.981Z,74.15
2023-02-12T08:56:54.136Z,80.38
2023-02-12T08:59:20.693Z,75.60
2023-02-12T09:01:50.602Z,74.88
2023-02-12T09:04:22.365Z,78.22
2023-02-12T09:06:50.020Z,67.32
2023-02-12T09:09:17.183Z,69.03
2023-02-12T09:11:44.746Z,72.40
2023-02-12T09:14:15.002Z,72.57
2023-02-12T09:16:42.413Z,73.43
2023-02-12T09:19:11.298Z,68.57
2023-02-12T09:21:37.800Z,69.93
2023-02-12T09:24:04.388Z,72.55
2023-02-12T09:26:31.220Z,66.35
2023-02-12T09:28:57.966Z,65.40
2023-02-12T09:31:27.266Z,68.55
2023-02-12T09:33:57.855Z,69.80
2023-02-12T09:36:24.509Z,59.47
2023-02-12T09:38:51.313Z,69.15
2023-02-12T09:41:20.643Z,67.35
2023-02-12T09:44:07.312Z,82.90
2023-02-12T09:46:39.263Z,61.45
2023-02-12T09:49:14.540Z,59.10
2023-02-12T09:54:14.246Z,56.92
2023-02-12T09:56:46.129Z,54.60
2023-02-12T09:59:22.816Z,54.63
2023-02-12T10:01:49.382Z,50.65
2023-02-12T10:04:16.059Z,54.65
2023-02-12T10:06:55.147Z,52.15
2023-02-12T10:09:33.800Z,52.03
2023-02-12T10:12:15.264Z,51.05
2023-02-12T10:14:51.237Z,46.92
2023-02-12T10:17:29.926Z,50.13
2023-02-12T10:20:05.723Z,49.75
2023-02-12T10:22:48.198Z,50.00
2023-02-12T10:25:44.223Z,49.58
2023-02-12T10:28:41.773Z,55.55
2023-02-12T10:31:13.207Z,51.20
2023-02-12T10:33:48.948Z,47.33
2023-02-12T10:36:39.845Z,49.03
2023-02-12T10:39:15.071Z,43.67
2023-02-12T10:42:14.696Z,42.50
2023-02-12T10:44:41.235Z,42.50
2023-02-12T10:47:18.602Z,44.42
2023-02-12T10:49:45.349Z,47.70
2023-02-12T10:52:21.936Z,49.08
2023-02-12T10:54:51.800Z,45.10
2023-02-12T10:57:22.627Z,45.13
2023-02-12T10:59:53.141Z,45.65
2023-02-12T11:02:28.722Z,45.17
2023-02-12T11:04:58.054Z,44.58
2023-02-12T11:07:25.679Z,44.38
2023-02-12T11:09:54.392Z,46.30
2023-02-12T11:12:32.489Z,48.83
2023-02-12T11:15:01.707Z,48.35
2023-02-12T11:18:02.730Z,46.22
2023-02-12T11:20:41.233Z,44.97
2023-02-12T11:23:39.564Z,50.47
2023-02-12T11:26:18.159Z,47.95
2023-02-12T11:28:57.169Z,47.80
2023-02-12T11:31:29.264Z,46.58
2023-02-12T11:34:04.709Z,45.70
2023-02-12T11:36:35.250Z,45.72
2023-02-12T11:39:02.319Z,46.03
2023-02-12T11:41:34.531Z,43.67
2023-02-12T11:44:02.774Z,42.15
2023-02-12T11:46:29.363Z,45.65
2023-02-12T11:48:57.683Z,46.75
2023-02-12T11:51:30.805Z,51.10
2023-02-12T11:54:03.614Z,46.25
2023-02-12T11:56:45.912Z,46.42
2023-02-12T11:59:27.373Z,43.70
2023-02-12T12:01:57.825Z,45.65
2023-02-12T12:04:29.596Z,42.03
2023-02-12T12:07:03.376Z,46.40
2023-02-12T12:10:05.294Z,41.25
2023-02-12T12:12:31.750Z,48.05
2023-02-12T12:15:26.030Z,42.40
2023-02-12T12:18:17.491Z,38.40
2023-02-12T12:20:55.394Z,39.08
2023-02-12T12:24:00.826Z,37.03
2023-02-12T12:26:31.398Z,41.75
2023-02-12T12:29:06.592Z,44.80
2023-02-12T12:31:41.243Z,42.30
2023-02-12T12:34:07.724Z,42.95
2023-02-12T12:37:05.252Z,48.53
2023-02-12T12:39:56.784Z,39.38
2023-02-12T12:42:55.126Z,40.80
2023-02-12T12:45:40.403Z,44.83
2023-02-12T12:48:06.793Z,43.97
2023-02-12T12:50:52.104Z,42.65
2023-02-12T12:53:33.313Z,43.65
2023-02-12T12:56:11.724Z,46.83
2023-02-12T12:58:44.269Z,46.97
2023-02-12T13:01:17.033Z,46.72
2023-02-12T13:04:08.773Z,44.65
2023-02-12T13:06:47.415Z,45.28
2023-02-12T13:09:57.785Z,45.80
2023-02-12T13:12:36.232Z,45.30
2023-02-12T13:15:43.909Z,43.33
2023-02-12T13:18:43.688Z,45.28
2023-02-12T13:21:35.082Z,47.05
2023-02-12T13:24:29.586Z,40.80
2023-02-12T13:27:00.063Z,44.88
2023-02-12T13:29:32.220Z,46.63
2023-02-12T13:32:51.178Z,47.53
2023-02-12T13:35:25.650Z,44.55
2023-02-12T13:37:57.112Z,47.43
2023-02-12T13:40:26.608Z,45.60
2023-02-12T13:43:09.054Z,42.42
2023-02-12T13:45:35.642Z,46.58
2023-02-12T13:48:23.320Z,47.67
2023-02-12T13:51:08.002Z,50.97
2023-02-12T13:53:52.890Z,50.95
2023-02-12T13:56:31.539Z,46.10
2023-02-12T13:59:00.421Z,47.28
2023-02-12T14:01:53.035Z,46.42
2023-02-12T14:04:19.513Z,46.00
2023-02-12T14:07:08.075Z,44.28
2023-02-12T14:09:40.529Z,43.58
2023-02-12T14:12:12.022Z,46.40
2023-02-12T14:14:50.563Z,51.72
2023-02-12T14:17:29.291Z,46.92
2023-02-12T14:20:05.834Z,43.88
2023-02-12T14:22:32.248Z,48.63
2023-02-12T14:25:01.621Z,54.38
2023-02-12T14:27:36.224Z,50.83
2023-02-12T14:30:11.625Z,43.60
2023-02-12T14:32:46.968Z,46.35
2023-02-12T14:38:02.539Z,44.77
2023-02-12T14:40:35.014Z,51.53
2023-02-12T14:43:23.121Z,47.47
2023-02-12T14:45:49.997Z,46.28
2023-02-12T14:48:48.885Z,44.70
2023-02-12T14:51:22.817Z,45.35
2023-02-12T14:53:51.527Z,50.03
2023-02-12T14:56:23.150Z,45.63
2023-02-12T14:58:52.850Z,44.42
2023-02-12T15:01:30.593Z,47.90
2023-02-12T15:04:02.070Z,42.13
2023-02-12T15:06:38.828Z,43.88
2023-02-12T15:09:52.248Z,43.63
2023-02-12T15:12:32.785Z,41.75
2023-02-12T15:15:13.001Z,42.78
2023-02-12T15:17:42.177Z,41.67
2023-02-12T15:20:21.070Z,40.00
2023-02-12T15:22:47.587Z,38.90
2023-02-12T15:25:24.669Z,40.00
2023-02-12T15:28:23.508Z,38.35
2023-02-12T15:30:52.305Z,45.13
2023-02-12T15:33:29.313Z,38.42
2023-02-12T15:35:57.069Z,41.80
2023-02-12T15:38:39.850Z,43.80
2023-02-12T15:41:06.738Z,38.97
2023-02-12T15:43:35.764Z,37.63
2023-02-12T15:46:04.295Z,45.80
2023-02-12T15:48:33.678Z,37.65
2023-02-12T15:51:24.903Z,35.20
2023-02-12T15:53:51.953Z,40.20
2023-02-12T15:56:22.073Z,39.45
2023-02-12T15:58:52.426Z,38.03
2023-02-12T16:01:24.998Z,38.47
2023-02-12T16:03:55.313Z,43.65
2023-02-12T16:06:23.822Z,40.65
2023-02-12T16:09:02.493Z,37.42
2023-02-12T16:11:30.763Z,41.22
2023-02-12T16:14:03.803Z,45.47
2023-02-12T16:16:44.751Z,40.30
2023-02-12T16:19:30.197Z,33.35
2023-02-12T16:21:56.646Z,38.22
2023-02-12T16:24:26.662Z,35.08
2023-02-12T16:26:54.146Z,42.05
2023-02-12T16:29:21.083Z,40.33
2023-02-12T16:32:01.812Z,41.20
2023-02-12T16:34:38.680Z,39.42
2023-02-12T16:37:49.981Z,38.25
2023-02-12T16:40:16.448Z,38.90
2023-02-12T16:42:49.131Z,38.30
2023-02-12T16:45:28.004Z,36.67
2023-02-12T16:48:00.360Z,37.53
2023-02-12T16:50:34.034Z,37.67
2023-02-12T16:53:04.135Z,38.67
2023-02-12T16:55:31.201Z,45.45
2023-02-12T16:57:57.722Z,36.08
2023-02-12T17:00:24.697Z,33.35
2023-02-12T17:02:53.750Z,42.25
2023-02-12T17:05:20.967Z,39.03
2023-02-12T17:07:47.453Z,39.80
2023-02-12T17:10:15.093Z,36.22
2023-02-12T17:12:49.797Z,41.80
2023-02-12T17:15:38.092Z,39.47
2023-02-12T17:18:04.714Z,35.88
2023-02-12T17:20:31.169Z,38.65
2023-02-12T17:22:59.409Z,38.28
2023-02-12T17:25:25.933Z,43.45
2023-02-12T17:27:52.409Z,42.92
2023-02-12T17:30:21.510Z,40.55
2023-02-12T17:32:49.663Z,40.95
2023-02-12T17:35:17.520Z,43.35
2023-02-12T17:37:44.901Z,40.90
2023-02-12T17:40:12.574Z,46.80
2023-02-12T17:42:39.169Z,42.38
2023-02-12T17:45:06.413Z,44.95
2023-02-12T17:47:39.598Z,42.13
2023-02-12T17:50:11.277Z,41.53
2023-02-12T17:52:37.812Z,48.55
2023-02-12T17:55:05.126Z,52.13
2023-02-12T17:57:32.074Z,46.13
2023-02-12T17:59:59.114Z,46.83
2023-02-12T18:02:25.796Z,45.20
2023-02-12T18:04:52.314Z,46.90
2023-02-12T18:07:18.788Z,46.83
2023-02-12T18:09:45.332Z,55.35
2023-02-12T18:12:11.850Z,53.80
2023-02-12T18:14:38.412Z,50.67
2023-02-12T18:17:04.863Z,50.95
2023-02-12T18:19:31.455Z,53.90
2023-02-12T18:21:57.932Z,54.58
2023-02-12T18:24:24.505Z,54.95
2023-02-12T18:26:51.204Z,53.58
2023-02-12T18:29:17.762Z,49.72
2023-02-12T18:31:44.768Z,51.70
2023-02-12T18:34:11.326Z,50.80
2023-02-12T18:36:37.882Z,55.30
2023-02-12T18:39:04.556Z,58.53
2023-02-12T18:41:32.768Z,52.20
2023-02-12T18:43:59.776Z,54.40
2023-02-12T18:46:29.148Z,54.65
2023-02-12T18:48:56.381Z,51.83
2023-02-12T18:51:26.119Z,57.85
2023-02-12T18:53:56.750Z,55.28
2023-02-12T18:56:23.525Z,57.47
2023-02-12T18:58:55.912Z,57.20
2023-02-12T19:01:23.017Z,57.70
2023-02-12T19:03:58.741Z,54.72
2023-02-12T19:06:25.807Z,56.13
2023-02-12T19:08:57.016Z,56.85
2023-02-12T19:11:23.896Z,53.05
2023-02-12T19:13:50.792Z,61.45
2023-02-12T19:16:20.020Z,58.55
2023-02-12T19:18:56.128Z,57.45
2023-02-12T19:21:26.079Z,57.47
2023-02-12T19:23:54.950Z,65.30
2023-02-12T19:26:22.392Z,56.28
2023-02-12T19:28:48.864Z,59.35
2023-02-12T19:31:23.923Z,62.50
2023-02-12T19:33:54.042Z,58.78
2023-02-12T19:36:20.906Z,64.22
2023-02-12T19:38:49.213Z,57.20
2023-02-12T19:41:19.183Z,58.65
2023-02-12T19:43:46.897Z,60.17
2023-02-12T19:46:16.253Z,60.63
2023-02-12T19:48:43.577Z,62.25
2023-02-12T19:51:21.356Z,59.10
2023-02-12T19:53:48.664Z,57.30
2023-02-12T19:56:16.247Z,61.28
2023-02-12T19:58:43.015Z,65.75
2023-02-12T20:01:12.244Z,57.28
2023-02-12T20:03:39.223Z,57.00
2023-02-12T20:06:14.128Z,57.25
2023-02-12T20:08:42.123Z,53.65
2023-02-12T20:11:14.197Z,59.20
2023-02-12T20:13:41.079Z,57.22
2023-02-12T20:16:13.182Z,60.70
2023-02-12T20:18:39.678Z,57.20
2023-02-12T20:21:28.246Z,57.28
2023-02-12T20:23:55.503Z,54.92
2023-02-12T20:26:22.765Z,56.65
2023-02-12T20:28:50.551Z,54.90
2023-02-12T20:31:20.992Z,51.53
2023-02-12T20:33:48.178Z,57.58
2023-02-12T20:36:15.263Z,53.78
2023-02-12T20:38:44.688Z,57.85
2023-02-12T20:41:11.730Z,56.10
2023-02-12T20:43:39.001Z,53.20
2023-02-12T20:46:07.411Z,58.72
2023-02-12T20:48:34.671Z,57.15
2023-02-12T20:51:04.064Z,55.65
2023-02-12T20:53:30.705Z,60.42
2023-02-12T20:56:10.696Z,56.25
2023-02-12T20:58:38.780Z,54.78
2023-02-12T21:01:07.677Z,51.65
2023-02-12T21:03:34.931Z,49.72
2023-02-12T21:06:01.885Z,53.15
2023-02-12T21:08:28.869Z,58.08
2023-02-12T21:11:03.122Z,55.28
2023-02-12T21:13:29.749Z,54.08
2023-02-12T21:16:08.144Z,48.83
2023-02-12T21:18:34.822Z,50.58
2023-02-12T21:21:06.222Z,47.33
2023-02-12T21:23:34.706Z,53.65
2023-02-12T21:26:06.511Z,50.08
2023-02-12T21:28:33.378Z,47.28
2023-02-12T21:31:13.660Z,55.13
2023-02-12T21:33:42.515Z,48.72
2023-02-12T21:36:17.899Z,48.58
2023-02-12T21:38:46.357Z,46.75
2023-02-12T21:41:30.854Z,48.80
2023-02-12T21:44:01.345Z,46.00
2023-02-12T21:46:28.725Z,46.78
2023-02-12T21:48:55.888Z,47.30
2023-02-12T21:51:24.867Z,48.50
2023-02-12T21:53:53.835Z,44.40
2023-02-12T21:56:20.886Z,46.03
2023-02-12T21:58:48.535Z,45.53
2023-02-12T22:01:24.658Z,43.75
2023-02-12T22:03:51.934Z,45.35
2023-02-12T22:06:20.122Z,46.20
2023-02-12T22:08:46.821Z,50.13
2023-02-12T22:11:14.492Z,47.00
2023-02-12T22:13:41.481Z,41.88
2023-02-12T22:16:09.274Z,47.47
2023-02-12T22:18:36.364Z,50.80
2023-02-12T22:21:05.036Z,50.38
2023-02-12T22:23:32.215Z,45.60
2023-02-12T22:26:10.917Z,47.03
2023-02-12T22:28:45.604Z,43.60
2023-02-12T22:31:14.953Z,46.13
2023-02-12T22:33:41.428Z,53.15
2023-02-12T22:36:09.826Z,46.20
2023-02-12T22:38:37.578Z,46.97
2023-02-12T22:41:05.531Z,42.42
2023-02-12T22:43:33.563Z,43.60
2023-02-12T22:46:00.663Z,42.55
2023-02-12T22:48:28.502Z,42.33
2023-02-12T22:50:56.856Z,45.05
2023-02-12T22:53:24.855Z,40.20
2023-02-12T22:55:51.778Z,42.45
2023-02-12T22:58:18.693Z,47.13
2023-02-12T23:00:45.184Z,43.58
2023-02-12T23:03:11.693Z,41.38
2023-02-12T23:05:39.097Z,45.85
2023-02-12T23:08:06.736Z,46.70
2023-02-12T23:10:33.723Z,47.60
2023-02-12T23:13:02.176Z,42.60
2023-02-12T23:15:28.789Z,42.95
2023-02-12T23:17:55.311Z,48.70
2023-02-12T23:20:21.891Z,45.97
2023-02-12T23:22:48.356Z,40.63
2023-02-12T23:25:14.926Z,46.78
2023-02-12T23:27:41.397Z,41.15
2023-02-12T23:30:08.977Z,42.72
2023-02-12T23:32:35.469Z,45.78
2023-02-12T23:35:02.159Z,41.05
2023-02-12T23:37:28.598Z,42.35
2023-02-12T23:39:55.070Z,46.10
2023-02-12T23:42:21.519Z,43.75
2023-02-12T23:44:48.032Z,40.35
2023-02-12T23:47:14.476Z,38.40
2023-02-12T23:49:41.002Z,42.25
2023-02-12T23:52:07.625Z,39.53
2023-02-12T23:54:34.245Z,40.38
2023-02-12T23:57:00.704Z,44.72
2023-02-12T23:59:27.238Z,42.67
